Time;durP1;ratioP1;P1;durP2;ratioP2;P2;SDS_P1;SDS_P2;PMS_P1;PMS_P2;Temp;Humidity;BMP_temperature;BMP_pressure;BME280_temperature;BME280_humidity;BME280_pressure;Samples;Min_cycle;Max_cycle;Signal;HPM_P1;HPM_P2
2022/04/24 00:05:52;;;;;;;2.25;1.08;;;12.40;99.90;;;;;;20914311;28;20527;-38
2022/04/24 00:15:53;;;;;;;4.22;1.40;;;12.20;99.90;;;;;;20896854;28;20388;-38
2022/04/24 00:25:54;;;;;;;3.50;1.33;;;12.10;99.90;;;;;;20909917;28;20041;-39
2022/04/24 00:35:55;;;;;;;3.20;1.55;;;12.10;99.90;;;;;;20920429;28;20044;-39
2022/04/24 00:46:12;;;;;;;2.85;1.45;;;11.90;99.90;;;;;;20927918;28;20044;-38
2022/04/24 00:56:13;;;;;;;3.65;1.73;;;11.70;99.90;;;;;;20938608;28;21675;-38
2022/04/24 01:06:14;;;;;;;3.53;1.77;;;11.60;99.90;;;;;;20928594;28;20044;-39
2022/04/24 01:16:15;;;;;;;2.85;1.60;;;11.50;99.90;;;;;;20926959;28;20044;-38
2022/04/24 01:26:16;;;;;;;4.40;1.73;;;11.30;99.90;;;;;;20924513;28;20040;-38
2022/04/24 01:36:17;;;;;;;3.88;1.80;;;11.30;99.90;;;;;;20930588;28;20551;-39
2022/04/24 01:46:19;;;;;;;5.85;2.42;;;11.10;99.90;;;;;;20929779;28;20044;-39
2022/04/24 01:56:20;;;;;;;4.63;2.33;;;10.90;99.90;;;;;;20924191;28;20330;-39
2022/04/24 02:06:21;;;;;;;4.20;2.33;;;11.00;99.90;;;;;;20899161;28;20041;-38
2022/04/24 02:16:22;;;;;;;5.40;1.90;;;11.00;99.90;;;;;;20912193;28;20040;-38
2022/04/24 02:26:23;;;;;;;4.13;1.65;;;10.80;99.90;;;;;;20924041;28;20044;-38
2022/04/24 02:36:24;;;;;;;5.82;2.30;;;10.80;99.90;;;;;;21567019;22;20052;-79
2022/04/24 02:46:25;;;;;;;6.97;2.83;;;10.80;99.90;;;;;;20829904;28;20044;-79
2022/04/24 02:56:26;;;;;;;4.63;2.38;;;10.70;99.90;;;;;;20846492;28;20049;-79
2022/04/24 03:06:27;;;;;;;3.13;1.65;;;10.60;99.90;;;;;;20806665;28;20034;-79
2022/04/24 03:16:28;;;;;;;6.82;2.33;;;10.50;99.90;;;;;;20826244;28;20360;-79
2022/04/24 03:26:29;;;;;;;3.95;1.83;;;10.40;99.90;;;;;;20842509;28;20052;-79
2022/04/24 03:36:30;;;;;;;6.57;2.40;;;10.30;99.90;;;;;;20867773;28;20611;-79
2022/04/24 03:46:32;;;;;;;4.85;2.10;;;10.20;99.90;;;;;;20900255;28;20446;-78
2022/04/24 03:56:34;;;;;;;6.65;2.17;;;10.10;99.90;;;;;;20911460;28;20428;-79
2022/04/24 04:06:35;;;;;;;3.25;1.55;;;10.00;99.90;;;;;;20910598;28;20530;-79
2022/04/24 04:16:37;;;;;;;3.85;2.00;;;9.90;99.90;;;;;;20935434;28;20045;-79
2022/04/24 04:26:38;;;;;;;4.43;1.77;;;9.90;99.90;;;;;;20955186;28;20044;-79
2022/04/24 04:36:39;;;;;;;5.07;1.88;;;9.90;99.90;;;;;;20931169;28;20048;-79
2022/04/24 04:46:40;;;;;;;2.88;1.63;;;9.70;99.90;;;;;;20933905;28;20033;-79
2022/04/24 04:56:42;;;;;;;6.13;2.03;;;9.70;99.90;;;;;;20914059;28;20522;-79
2022/04/24 05:06:43;;;;;;;5.30;1.92;;;9.60;99.90;;;;;;20934505;28;20056;-79
2022/04/24 05:16:45;;;;;;;3.55;1.60;;;9.60;99.90;;;;;;20908712;28;20186;-79
2022/04/24 05:26:46;;;;;;;3.85;1.77;;;9.70;99.90;;;;;;20912425;28;20048;-80
2022/04/24 05:36:47;;;;;;;2.42;1.38;;;9.70;99.90;;;;;;20929441;28;20521;-80
2022/04/24 05:46:48;;;;;;;3.45;1.55;;;9.90;99.90;;;;;;20924192;28;20485;-81
2022/04/24 05:56:49;;;;;;;4.18;1.65;;;10.30;99.90;;;;;;20923485;28;20033;-79
2022/04/24 06:06:50;;;;;;;3.25;2.22;;;10.60;99.90;;;;;;20928221;28;20037;-79
2022/04/24 06:16:52;;;;;;;5.75;2.03;;;10.90;99.90;;;;;;20929592;28;20036;-81
2022/04/24 06:26:53;;;;;;;3.28;1.45;;;11.00;99.90;;;;;;20913911;28;20033;-82
2022/04/24 06:36:54;;;;;;;2.47;1.23;;;11.30;99.90;;;;;;20915875;28;20580;-79
2022/04/24 06:46:55;;;;;;;3.10;1.30;;;11.50;99.90;;;;;;20925885;28;20518;-80
2022/04/24 06:57:01;;;;;;;3.60;1.35;;;11.70;99.90;;;;;;20903972;28;20432;-80
2022/04/24 07:07:02;;;;;;;3.33;1.73;;;11.70;99.90;;;;;;20903936;28;20118;-80
2022/04/24 07:17:04;;;;;;;4.60;1.52;;;11.70;99.90;;;;;;20921463;28;20047;-80
2022/04/24 07:27:06;;;;;;;4.32;1.50;;;11.70;99.90;;;;;;20881875;28;20101;-80
2022/04/24 07:37:07;;;;;;;3.15;1.25;;;11.90;99.90;;;;;;20957117;28;20334;-80
2022/04/24 07:47:09;;;;;;;3.78;1.50;;;11.90;99.90;;;;;;20925373;28;20036;-82
2022/04/24 07:57:10;;;;;;;4.18;1.70;;;12.00;99.90;;;;;;20945517;28;20562;-80
2022/04/24 08:07:11;;;;;;;4.10;1.60;;;12.20;99.90;;;;;;20927937;28;20064;-79
2022/04/24 08:17:14;;;;;;;3.70;1.83;;;12.40;99.90;;;;;;20909726;28;20032;-81
2022/04/24 08:27:15;;;;;;;2.05;1.17;;;12.60;99.90;;;;;;20950984;28;20044;-80
2022/04/24 08:37:17;;;;;;;3.53;1.70;;;12.70;99.90;;;;;;20949106;28;20561;-82
2022/04/24 08:47:19;;;;;;;3.97;2.17;;;13.30;99.90;;;;;;20943978;28;20115;-81
2022/04/24 08:57:26;;;;;;;3.42;1.88;;;13.60;99.90;;;;;;20938190;28;20419;-80
2022/04/24 09:07:32;;;;;;;3.17;1.37;;;14.00;99.90;;;;;;20950897;28;20455;-79
2022/04/24 09:17:34;;;;;;;3.72;1.95;;;14.50;99.90;;;;;;20933867;28;20037;-83
2022/04/24 09:27:36;;;;;;;3.45;1.35;;;14.80;99.90;;;;;;20946205;28;20041;-81
2022/04/24 09:37:41;;;;;;;2.72;1.63;;;15.20;99.90;;;;;;20916283;28;20518;-81
2022/04/24 09:47:42;;;;;;;4.25;1.65;;;15.60;99.90;;;;;;20922804;28;20497;-81
2022/04/24 09:57:46;;;;;;;3.13;1.30;;;15.80;99.90;;;;;;20919075;28;20492;-81
2022/04/24 10:07:47;;;;;;;3.05;1.45;;;16.20;99.90;;;;;;20935718;28;20047;-81
2022/04/24 10:17:54;;;;;;;3.28;1.25;;;16.40;99.70;;;;;;20936054;28;20040;-81
2022/04/24 10:27:55;;;;;;;4.50;1.63;;;16.60;99.60;;;;;;20928047;28;20050;-81
2022/04/24 10:38:07;;;;;;;2.80;1.33;;;17.10;99.10;;;;;;20925146;28;20048;-82
2022/04/24 10:48:17;;;;;;;1.75;1.05;;;17.30;97.90;;;;;;20947936;28;20037;-81
2022/04/24 10:58:28;;;;;;;2.65;1.30;;;17.30;98.50;;;;;;20924609;28;20360;-81
2022/04/24 11:08:29;;;;;;;20.95;1.92;;;17.70;97.30;;;;;;20926526;28;20040;-81
2022/04/24 11:18:30;;;;;;;2.47;0.90;;;18.00;96.80;;;;;;20921571;28;20041;-81
2022/04/24 11:28:35;;;;;;;2.72;1.40;;;18.10;95.80;;;;;;20921186;28;20044;-81
2022/04/24 11:38:36;;;;;;;4.47;1.20;;;18.30;95.50;;;;;;20908677;28;20480;-81
2022/04/24 11:59:23;;;;;;;2.17;0.90;;;18.80;94.60;;;;;;20913404;28;20043;-80
2022/04/24 12:09:24;;;;;;;2.50;1.10;;;18.80;93.30;;;;;;20899707;28;20404;-80
2022/04/24 12:19:26;;;;;;;1.88;0.90;;;19.10;93.20;;;;;;20916341;28;20041;-81
2022/04/24 12:29:27;;;;;;;2.22;1.23;;;19.40;91.70;;;;;;20943299;28;20036;-81
2022/04/24 12:39:29;;;;;;;1.40;0.60;;;19.40;92.20;;;;;;20937626;28;20047;-81
2022/04/24 12:49:33;;;;;;;2.03;1.55;;;19.40;90.60;;;;;;20959119;28;20052;-81
2022/04/24 12:59:35;;;;;;;2.85;0.85;;;20.00;93.30;;;;;;20963650;28;20037;-80
2022/04/24 13:09:36;;;;;;;1.20;0.50;;;20.50;90.00;;;;;;20964051;28;20128;-81
2022/04/24 13:19:37;;;;;;;2.85;0.73;;;20.40;89.40;;;;;;20940448;28;20131;-81
2022/04/24 13:29:39;;;;;;;1.20;0.32;;;20.20;91.20;;;;;;20938541;28;20132;-81
2022/04/24 13:39:41;;;;;;;1.63;0.63;;;19.20;91.30;;;;;;20942939;28;20186;-81
2022/04/24 13:49:42;;;;;;;1.10;0.47;;;19.50;91.70;;;;;;20943384;28;20032;-81
2022/04/24 13:59:44;;;;;;;1.05;0.47;;;18.80;91.90;;;;;;20919742;28;20043;-81
2022/04/24 14:09:47;;;;;;;0.65;0.32;;;18.90;92.30;;;;;;20924463;28;20036;-81
2022/04/24 14:19:48;;;;;;;1.17;0.40;;;18.90;91.90;;;;;;20913666;28;20031;-82
2022/04/24 14:29:50;;;;;;;1.13;0.47;;;18.40;91.80;;;;;;20918429;28;20044;-81
2022/04/24 14:39:51;;;;;;;1.30;0.60;;;18.30;94.40;;;;;;20904421;28;20051;-80
2022/04/24 15:00:13;;;;;;;1.77;0.70;;;18.00;94.00;;;;;;20936026;28;20117;-81
2022/04/24 15:10:15;;;;;;;1.65;0.60;;;17.50;96.60;;;;;;20950491;28;20044;-80
2022/04/24 15:20:18;;;;;;;1.70;0.60;;;17.50;96.80;;;;;;20918979;28;20094;-80
2022/04/24 15:30:19;;;;;;;2.95;0.85;;;17.20;98.30;;;;;;20914195;28;20041;-81
2022/04/24 15:40:20;;;;;;;4.07;1.05;;;16.80;97.60;;;;;;20910480;28;20067;-80
2022/04/24 15:50:30;;;;;;;2.90;0.98;;;16.80;99.80;;;;;;20920778;28;20487;-80
2022/04/24 16:00:31;;;;;;;2.13;0.70;;;16.90;99.70;;;;;;20922914;28;20025;-80
2022/04/24 16:10:32;;;;;;;3.15;0.82;;;16.40;99.90;;;;;;20925382;28;20495;-81
2022/04/24 16:20:33;;;;;;;1.88;0.60;;;16.20;99.90;;;;;;20933412;28;20126;-80
2022/04/24 16:30:35;;;;;;;2.60;0.80;;;16.00;99.90;;;;;;20986012;28;20087;-81
2022/04/24 16:40:37;;;;;;;2.40;0.57;;;15.80;99.90;;;;;;20901254;28;20055;-80
2022/04/24 17:00:58;;;;;;;2.65;0.70;;;15.20;99.90;;;;;;20942046;28;20515;-80
2022/04/24 17:11:00;;;;;;;1.52;0.60;;;15.10;99.90;;;;;;20930019;28;20070;-80
2022/04/24 17:21:01;;;;;;;2.45;0.70;;;14.80;99.90;;;;;;20925320;28;20436;-80
2022/04/24 17:31:05;;;;;;;6.97;0.90;;;14.70;99.90;;;;;;20944477;28;20049;-80
2022/04/24 17:41:06;;;;;;;2.08;0.65;;;14.60;99.90;;;;;;20932567;28;20047;-80
2022/04/24 17:51:08;;;;;;;1.35;0.50;;;14.50;99.90;;;;;;20943782;28;20113;-80
2022/04/24 18:01:09;;;;;;;2.97;1.20;;;14.30;99.90;;;;;;20916231;28;20399;-80
2022/04/24 18:11:10;;;;;;;1.48;0.70;;;14.10;99.90;;;;;;20933570;28;20037;-80
2022/04/24 18:21:12;;;;;;;1.38;0.65;;;13.90;99.90;;;;;;20922014;28;20028;-80
2022/04/24 18:31:14;;;;;;;2.20;0.50;;;13.80;99.90;;;;;;20912996;28;20040;-80
2022/04/24 18:41:15;;;;;;;1.98;0.80;;;13.50;99.90;;;;;;20918495;28;20449;-80
2022/04/24 18:51:16;;;;;;;1.45;0.70;;;13.40;99.90;;;;;;20930145;28;20070;-80
2022/04/24 19:01:18;;;;;;;7.40;1.02;;;13.10;99.90;;;;;;20916504;28;20029;-79
2022/04/24 19:11:20;;;;;;;2.00;0.68;;;12.90;99.90;;;;;;20910852;28;20036;-80
2022/04/24 19:21:24;;;;;;;1.88;0.90;;;12.80;99.90;;;;;;20933204;28;20043;-80
2022/04/24 19:31:25;;;;;;;3.83;1.35;;;12.60;99.90;;;;;;20908616;28;20041;-80
2022/04/24 19:41:27;;;;;;;2.70;0.70;;;12.60;99.90;;;;;;20928655;28;20119;-80
2022/04/24 19:51:30;;;;;;;1.90;0.68;;;12.40;99.90;;;;;;20903732;28;20130;-80
2022/04/24 20:01:31;;;;;;;1.63;0.65;;;12.40;99.90;;;;;;20907728;28;20033;-80
2022/04/24 20:11:37;;;;;;;2.17;0.70;;;12.10;99.90;;;;;;20900064;28;20040;-80
2022/04/24 20:21:38;;;;;;;1.98;0.80;;;12.00;99.90;;;;;;20923932;28;20047;-80
2022/04/24 20:31:39;;;;;;;1.63;0.80;;;12.00;99.90;;;;;;20929149;28;20050;-80
2022/04/24 20:41:43;;;;;;;2.72;0.85;;;11.90;99.90;;;;;;20938573;28;20037;-79
2022/04/24 20:51:44;;;;;;;2.00;0.80;;;11.70;99.90;;;;;;20967171;28;20040;-80
2022/04/24 21:01:45;;;;;;;1.67;0.75;;;11.60;99.90;;;;;;20959779;28;20040;-79
2022/04/24 21:11:47;;;;;;;2.42;1.02;;;11.60;99.90;;;;;;20962669;28;20037;-80
2022/04/24 21:21:48;;;;;;;3.13;1.10;;;11.50;99.90;;;;;;20940262;28;20041;-80
2022/04/24 21:31:49;;;;;;;2.15;1.00;;;11.30;99.90;;;;;;20938741;28;20064;-80
2022/04/24 21:41:51;;;;;;;4.25;1.02;;;11.20;99.90;;;;;;20944494;28;20984;-80
2022/04/24 21:51:52;;;;;;;6.35;0.77;;;11.10;99.90;;;;;;20946581;28;20045;-79
2022/04/24 22:12:13;;;;;;;8.13;3.20;;;11.00;99.90;;;;;;20928320;28;20076;-81
2022/04/24 22:32:34;;;;;;;4.47;1.52;;;10.80;99.90;;;;;;20910194;28;20134;-79
2022/04/24 22:42:35;;;;;;;2.17;1.08;;;10.80;99.90;;;;;;20900187;28;20516;-81
2022/04/24 22:52:37;;;;;;;3.42;1.30;;;10.70;99.90;;;;;;20903991;28;20041;-81
2022/04/24 23:02:40;;;;;;;3.25;1.30;;;10.60;99.90;;;;;;20884402;28;20319;-80
2022/04/24 23:12:41;;;;;;;4.03;1.80;;;10.50;99.90;;;;;;20911706;28;20044;-81
2022/04/24 23:22:43;;;;;;;2.83;1.42;;;10.40;99.90;;;;;;20896664;28;20028;-81
2022/04/24 23:32:44;;;;;;;3.55;1.42;;;10.30;99.90;;;;;;20877625;28;20089;-80
2022/04/24 23:42:48;;;;;;;4.13;1.40;;;10.30;99.90;;;;;;20901655;28;20043;-81
2022/04/24 23:52:49;;;;;;;4.93;1.70;;;10.20;99.90;;;;;;20902343;28;20049;-81
